Time;durP1;ratioP1;P1;durP2;ratioP2;P2;SDS_P1;SDS_P2;PMS_P1;PMS_P2;Temp;Humidity;BMP_temperature;BMP_pressure;BME280_temperature;BME280_humidity;BME280_pressure;Samples;Min_cycle;Max_cycle;Signal;HPM_P1;HPM_P2
2023/10/16 00:38:07;;;;;;;;;;;;;;;;;;;;;
2023/10/16 00:44:17;;;;;;;0.00;0.00;;;;;;;;;;6181960;23;20369;-84
2023/10/16 00:57:52;;;;;;;;;;;;;;;;;;;;;
2023/10/16 05:10:12;;;;;;;2.25;0.40;;;;;;;;;;6224462;22;20051;-83
2023/10/16 05:16:31;;;;;;;0.73;0.30;;;;;;;;;;6148368;23;20024;-86
2023/10/16 07:04:11;;;;;;;0.20;0.20;;;;;;;;;;6155289;23;20901;-90
2023/10/16 07:06:42;;;;;;;2.60;0.50;;;;;;;;;;6151528;23;20371;-88
2023/10/16 07:09:17;;;;;;;0.65;0.40;;;;;;;;;;6118903;23;20029;-88
2023/10/16 07:11:43;;;;;;;1.33;0.50;;;;;;;;;;6094963;23;20455;-91
2023/10/16 07:14:51;;;;;;;1.38;0.63;;;;;;;;;;6095395;23;20014;-87
2023/10/16 07:17:40;;;;;;;;;;;;;;;;;;;;;
2023/10/16 07:26:24;;;;;;;0.77;0.25;;;;;;;;;;6065607;23;20071;-87
2023/10/16 08:24:24;;;;;;;;;;;;;;;;;;;;;
2023/10/16 08:55:29;;;;;;;3.55;0.80;;;;;;;;;;6240682;22;20035;-89
2023/10/16 08:58:05;;;;;;;0.20;0.10;;;;;;;;;;6240696;23;20016;-89
2023/10/16 09:00:38;;;;;;;1.27;0.65;;;;;;;;;;6240228;23;20016;-90
2023/10/16 10:42:41;;;;;;;;;;;;;;;;;;;;;
2023/10/16 14:01:32;;;;;;;1.27;0.60;;;;;;;;;;6214538;23;20036;-86
2023/10/16 14:09:42;;;;;;;0.25;0.20;;;;;;;;;;6216014;22;20025;-88
2023/10/16 14:12:17;;;;;;;4.78;0.22;;;;;;;;;;6223342;23;20012;-87
2023/10/16 14:21:34;;;;;;;0.60;0.32;;;;;;;;;;6182832;23;20032;-86
2023/10/16 14:24:25;;;;;;;0.25;0.20;;;;;;;;;;6149179;23;20017;-86
2023/10/16 14:30:11;;;;;;;1.17;0.73;;;;;;;;;;6149784;23;20346;-87
2023/10/16 14:32:46;;;;;;;0.22;0.20;;;;;;;;;;6149591;23;20499;-90
2023/10/16 16:10:12;;;;;;;;;;;;;;;;;;;;;
2023/10/16 17:05:58;;;;;;;0.43;0.30;;;;;;;;;;6246650;23;20034;-88
2023/10/16 17:11:00;;;;;;;2.17;0.65;;;;;;;;;;6243924;22;20028;-88
2023/10/16 17:13:26;;;;;;;1.92;0.82;;;;;;;;;;6243066;23;20012;-88
2023/10/16 17:26:55;;;;;;;1.35;0.38;;;;;;;;;;6240158;22;20032;-87
2023/10/16 17:29:50;;;;;;;0.75;0.40;;;;;;;;;;6240468;23;20489;-87
2023/10/16 17:32:29;;;;;;;;;;;;;;;;;;;;;
2023/10/16 17:34:55;;;;;;;0.28;0.20;;;;;;;;;;6242346;23;20095;-86
2023/10/16 17:37:25;;;;;;;1.88;0.60;;;;;;;;;;6242025;23;20091;-86
2023/10/16 17:39:54;;;;;;;0.57;0.43;;;;;;;;;;6241454;23;20009;-85
2023/10/16 18:02:21;;;;;;;1.45;0.60;;;;;;;;;;6241391;22;20098;-86
2023/10/16 18:21:06;;;;;;;0.98;0.65;;;;;;;;;;6241853;23;20023;-85
2023/10/16 18:23:32;;;;;;;3.80;0.73;;;;;;;;;;6240410;23;20143;-86
2023/10/16 18:26:01;;;;;;;4.15;0.65;;;;;;;;;;6241166;23;20011;-86
2023/10/16 18:28:30;;;;;;;3.55;0.75;;;;;;;;;;6244917;23;20355;-86
2023/10/16 18:31:34;;;;;;;;;;;;;;;;;;;;;
2023/10/16 18:34:13;;;;;;;2.13;0.28;;;;;;;;;;6243371;23;20389;-87
2023/10/16 18:36:46;;;;;;;1.42;0.82;;;;;;;;;;6241297;23;20431;-87
2023/10/16 18:39:20;;;;;;;1.02;0.50;;;;;;;;;;6241586;23;20020;-87
2023/10/16 18:41:56;;;;;;;;;;;;;;;;;;;;;
2023/10/16 18:44:45;;;;;;;11.50;1.35;;;;;;;;;;6244393;23;20091;-86
2023/10/16 18:47:55;;;;;;;4.00;0.98;;;;;;;;;;6168439;23;20583;-86
2023/10/16 18:50:26;;;;;;;0.57;0.30;;;;;;;;;;6241985;23;20036;-86
2023/10/16 18:53:09;;;;;;;1.77;0.95;;;;;;;;;;6241833;23;20359;-86
2023/10/16 18:55:41;;;;;;;0.73;0.47;;;;;;;;;;6241629;23;20012;-86
2023/10/16 18:58:28;;;;;;;9.80;1.35;;;;;;;;;;6240872;23;20023;-86
2023/10/16 19:01:11;;;;;;;4.93;1.25;;;;;;;;;;6240588;23;20019;-86
2023/10/16 19:03:49;;;;;;;2.80;0.77;;;;;;;;;;6242396;23;20051;-86
2023/10/16 19:06:31;;;;;;;0.75;0.52;;;;;;;;;;6241176;23;20355;-86
2023/10/16 19:09:16;;;;;;;0.98;0.60;;;;;;;;;;6216238;23;20016;-86
2023/10/16 19:11:56;;;;;;;1.60;0.65;;;;;;;;;;6215067;23;20016;-85
2023/10/16 19:17:45;;;;;;;2.10;1.02;;;;;;;;;;6211178;23;20016;-85
2023/10/16 19:20:22;;;;;;;2.78;1.15;;;;;;;;;;6213531;23;20020;-85
2023/10/16 19:23:01;;;;;;;3.03;0.40;;;;;;;;;;6214920;23;20074;-85
2023/10/16 19:25:27;;;;;;;1.38;0.60;;;;;;;;;;6214688;23;20078;-86
2023/10/16 19:27:53;;;;;;;4.45;0.88;;;;;;;;;;6214643;23;20012;-85
2023/10/16 19:30:22;;;;;;;1.25;0.65;;;;;;;;;;6213855;23;20123;-86
2023/10/16 19:32:48;;;;;;;4.90;1.00;;;;;;;;;;6213961;23;20606;-86
2023/10/16 19:35:16;;;;;;;0.80;0.63;;;;;;;;;;6214355;23;20031;-85
2023/10/16 19:37:42;;;;;;;2.15;0.52;;;;;;;;;;6215621;23;20016;-86
2023/10/16 19:40:15;;;;;;;1.33;0.65;;;;;;;;;;6240780;23;20067;-86
2023/10/16 19:42:42;;;;;;;1.08;0.70;;;;;;;;;;6241144;23;20009;-86
2023/10/16 19:45:08;;;;;;;2.08;1.00;;;;;;;;;;6241804;23;20020;-86
2023/10/16 19:47:53;;;;;;;1.08;0.82;;;;;;;;;;6242165;23;20008;-85
2023/10/16 19:50:20;;;;;;;3.70;0.60;;;;;;;;;;6241678;23;20095;-85
2023/10/16 19:52:46;;;;;;;3.47;0.82;;;;;;;;;;6241405;23;20403;-85
2023/10/16 19:55:22;;;;;;;5.38;0.75;;;;;;;;;;6241115;23;20335;-85
2023/10/16 19:57:51;;;;;;;4.55;1.63;;;;;;;;;;6240584;23;20008;-85
2023/10/16 20:00:18;;;;;;;3.70;0.68;;;;;;;;;;6240142;23;20091;-85
2023/10/16 20:02:47;;;;;;;4.60;1.42;;;;;;;;;;6240944;23;20028;-86
2023/10/16 20:05:18;;;;;;;1.20;0.70;;;;;;;;;;6241206;23;20008;-86
2023/10/16 20:07:44;;;;;;;2.65;0.52;;;;;;;;;;6241408;23;20012;-86
2023/10/16 20:10:13;;;;;;;1.92;1.08;;;;;;;;;;6241337;23;20016;-86
2023/10/16 20:12:41;;;;;;;8.88;1.30;;;;;;;;;;6240833;23;20016;-86
2023/10/16 20:15:07;;;;;;;1.63;0.68;;;;;;;;;;6240822;23;20015;-86
2023/10/16 20:17:33;;;;;;;6.85;0.88;;;;;;;;;;6240628;23;20016;-86
2023/10/16 20:20:00;;;;;;;5.35;1.10;;;;;;;;;;6241351;23;20015;-85
2023/10/16 20:22:31;;;;;;;2.42;0.82;;;;;;;;;;6243526;23;20482;-86
2023/10/16 20:24:57;;;;;;;2.55;0.77;;;;;;;;;;6243440;23;20388;-85
2023/10/16 20:27:29;;;;;;;7.07;0.68;;;;;;;;;;6244899;23;20012;-85
2023/10/16 20:29:55;;;;;;;2.07;1.33;;;;;;;;;;6244851;23;20016;-85
2023/10/16 20:32:22;;;;;;;4.10;1.25;;;;;;;;;;6241622;23;20041;-86
2023/10/16 20:34:49;;;;;;;3.03;0.82;;;;;;;;;;6240449;23;20332;-85
2023/10/16 20:37:18;;;;;;;3.75;1.10;;;;;;;;;;6242629;23;20012;-84
2023/10/16 20:39:49;;;;;;;4.00;1.20;;;;;;;;;;6241350;23;20019;-85
2023/10/16 20:42:15;;;;;;;4.90;1.05;;;;;;;;;;6240931;23;20099;-85
2023/10/16 20:44:41;;;;;;;1.85;0.45;;;;;;;;;;6241692;23;20028;-85
2023/10/16 20:47:09;;;;;;;6.80;1.02;;;;;;;;;;6240101;23;20791;-85
2023/10/16 20:49:35;;;;;;;2.50;0.90;;;;;;;;;;6241651;23;20012;-85
2023/10/16 20:52:02;;;;;;;3.15;0.98;;;;;;;;;;6241321;23;20020;-85
2023/10/16 20:54:28;;;;;;;1.25;0.52;;;;;;;;;;6241349;23;20428;-85
2023/10/16 20:56:54;;;;;;;4.30;0.95;;;;;;;;;;6241383;23;20030;-85
2023/10/16 20:59:20;;;;;;;1.75;0.73;;;;;;;;;;6240954;23;20016;-85
2023/10/16 21:01:46;;;;;;;0.35;0.32;;;;;;;;;;6241319;23;20039;-85
2023/10/16 21:04:12;;;;;;;0.93;0.40;;;;;;;;;;6241762;23;20134;-85
2023/10/16 21:06:38;;;;;;;8.00;1.20;;;;;;;;;;6241715;23;20040;-85
2023/10/16 21:09:04;;;;;;;6.57;1.00;;;;;;;;;;6242372;23;20012;-86
2023/10/16 21:11:31;;;;;;;1.10;0.80;;;;;;;;;;6242144;23;20020;-85
2023/10/16 21:13:57;;;;;;;0.90;0.25;;;;;;;;;;6242498;23;20012;-86
2023/10/16 21:16:23;;;;;;;1.23;0.77;;;;;;;;;;6241923;23;20020;-86
2023/10/16 21:18:49;;;;;;;0.77;0.73;;;;;;;;;;6239838;23;20008;-85
2023/10/16 21:21:15;;;;;;;0.82;0.60;;;;;;;;;;6240213;23;20023;-86
2023/10/16 21:23:43;;;;;;;1.42;0.85;;;;;;;;;;6239759;23;20312;-86
2023/10/16 21:26:09;;;;;;;;;;;;;;;;;;6241068;23;20016;-85
2023/10/16 21:28:35;;;;;;;0.95;0.50;;;;;;;;;;6240203;23;19914;-86
2023/10/16 21:31:02;;;;;;;2.63;0.77;;;;;;;;;;6239816;23;20032;-85
2023/10/16 21:33:29;;;;;;;3.22;0.95;;;;;;;;;;6239393;23;20360;-86
2023/10/16 21:36:03;;;;;;;1.58;0.50;;;;;;;;;;6240722;23;20039;-86
2023/10/16 21:38:30;;;;;;;3.67;0.95;;;;;;;;;;6240808;23;20332;-86
2023/10/16 21:41:02;;;;;;;1.13;0.30;;;;;;;;;;6239637;23;20028;-85
2023/10/16 21:43:29;;;;;;;5.97;0.85;;;;;;;;;;6240592;23;20008;-85
2023/10/16 21:45:55;;;;;;;;;;;;;;;;;;6241486;23;20012;-85
2023/10/16 21:48:21;;;;;;;0.28;0.13;;;;;;;;;;6241497;23;20307;-85
2023/10/16 21:50:49;;;;;;;1.48;1.02;;;;;;;;;;6242230;23;20007;-85
2023/10/16 21:53:15;;;;;;;2.08;0.50;;;;;;;;;;6242804;23;20115;-85
2023/10/16 21:55:41;;;;;;;;;;;;;;;;;;6244973;23;20004;-85
2023/10/16 21:58:07;;;;;;;0.35;0.30;;;;;;;;;;6242101;23;20342;-85
2023/10/16 22:00:40;;;;;;;1.38;0.38;;;;;;;;;;6240522;23;20011;-86
2023/10/16 22:03:06;;;;;;;0.68;0.20;;;;;;;;;;6239991;23;20073;-86
2023/10/16 22:05:32;;;;;;;0.13;0.10;;;;;;;;;;6240267;23;20357;-85
2023/10/16 22:07:59;;;;;;;0.57;0.40;;;;;;;;;;6242107;23;20427;-86
2023/10/16 22:10:25;;;;;;;2.40;0.35;;;;;;;;;;6242042;23;20012;-86
2023/10/16 22:12:51;;;;;;;0.65;0.35;;;;;;;;;;6242103;23;20016;-85
2023/10/16 22:15:18;;;;;;;1.80;0.50;;;;;;;;;;6242476;23;20014;-86
2023/10/16 22:17:44;;;;;;;0.55;0.38;;;;;;;;;;6242287;23;20456;-85
2023/10/16 22:20:14;;;;;;;1.80;0.40;;;;;;;;;;6242231;23;20015;-85
2023/10/16 22:22:40;;;;;;;5.63;0.30;;;;;;;;;;6241982;23;20765;-85
2023/10/16 22:25:06;;;;;;;3.97;0.68;;;;;;;;;;6242295;23;20004;-85
2023/10/16 22:27:33;;;;;;;1.85;0.57;;;;;;;;;;6242628;23;20027;-85
2023/10/16 22:29:59;;;;;;;0.95;0.55;;;;;;;;;;6241823;23;20008;-85
2023/10/16 22:32:25;;;;;;;0.80;0.25;;;;;;;;;;6242318;23;20024;-85
2023/10/16 22:34:51;;;;;;;1.83;1.38;;;;;;;;;;6242178;23;20069;-86
2023/10/16 22:37:17;;;;;;;1.33;0.55;;;;;;;;;;6242683;23;20012;-85
2023/10/16 22:39:43;;;;;;;0.85;0.32;;;;;;;;;;6244207;23;20008;-85
2023/10/16 22:42:10;;;;;;;1.58;0.40;;;;;;;;;;6243570;23;20513;-85
2023/10/16 22:44:37;;;;;;;1.95;1.23;;;;;;;;;;6242718;23;20023;-85
2023/10/16 22:47:04;;;;;;;1.02;0.63;;;;;;;;;;6242453;23;20016;-85
2023/10/16 22:49:30;;;;;;;1.23;0.25;;;;;;;;;;6241674;23;20012;-85
2023/10/16 22:51:57;;;;;;;2.75;0.73;;;;;;;;;;6241275;23;20039;-85
2023/10/16 22:54:23;;;;;;;2.67;0.82;;;;;;;;;;6241517;23;20092;-85
2023/10/16 22:56:49;;;;;;;2.17;0.70;;;;;;;;;;6241327;23;20122;-85
2023/10/16 22:59:15;;;;;;;3.95;1.08;;;;;;;;;;6241128;23;20036;-85
2023/10/16 23:01:41;;;;;;;1.50;0.60;;;;;;;;;;6240948;23;20023;-85
2023/10/16 23:04:08;;;;;;;0.88;0.60;;;;;;;;;;6241414;23;20694;-86
2023/10/16 23:06:34;;;;;;;1.90;0.95;;;;;;;;;;6241321;23;20138;-85
2023/10/16 23:09:00;;;;;;;6.72;0.88;;;;;;;;;;6241567;23;20092;-85
2023/10/16 23:11:27;;;;;;;1.20;0.60;;;;;;;;;;6241256;23;20016;-86
2023/10/16 23:13:54;;;;;;;1.00;0.63;;;;;;;;;;6241738;23;20074;-85
2023/10/16 23:16:27;;;;;;;3.60;0.60;;;;;;;;;;6241704;23;20024;-86
2023/10/16 23:18:54;;;;;;;1.45;0.50;;;;;;;;;;6241587;23;20012;-85
2023/10/16 23:21:22;;;;;;;1.30;0.30;;;;;;;;;;6241383;23;20019;-85
2023/10/16 23:23:48;;;;;;;1.48;1.00;;;;;;;;;;6241600;23;20004;-85
2023/10/16 23:26:14;;;;;;;3.70;0.70;;;;;;;;;;6241581;23;20408;-86
2023/10/16 23:28:40;;;;;;;1.08;0.43;;;;;;;;;;6243117;23;20086;-86
2023/10/16 23:31:07;;;;;;;1.33;0.50;;;;;;;;;;6243439;23;20111;-86
2023/10/16 23:33:35;;;;;;;1.70;0.43;;;;;;;;;;6243221;23;20026;-85
2023/10/16 23:36:03;;;;;;;1.70;0.93;;;;;;;;;;6242617;23;20012;-85
2023/10/16 23:38:30;;;;;;;4.68;1.20;;;;;;;;;;6241655;23;20099;-85
2023/10/16 23:41:03;;;;;;;3.17;0.68;;;;;;;;;;6241190;23;20005;-85
2023/10/16 23:43:29;;;;;;;0.90;0.47;;;;;;;;;;6241394;23;20035;-85
2023/10/16 23:45:59;;;;;;;0.73;0.30;;;;;;;;;;6235675;23;20004;-85
2023/10/16 23:48:33;;;;;;;0.60;0.30;;;;;;;;;;6210945;23;20612;-85
2023/10/16 23:51:13;;;;;;;1.85;0.80;;;;;;;;;;6211039;23;20005;-85
2023/10/16 23:53:49;;;;;;;1.65;0.52;;;;;;;;;;6211359;23;20444;-85
2023/10/16 23:56:19;;;;;;;3.63;0.80;;;;;;;;;;6210415;23;20015;-85
2023/10/16 23:59:08;;;;;;;2.28;1.30;;;;;;;;;;6210698;23;20021;-85
